Time;durP1;ratioP1;P1;durP2;ratioP2;P2;SDS_P1;SDS_P2;PMS_P1;PMS_P2;Temp;Humidity;BMP_temperature;BMP_pressure;BME280_temperature;BME280_humidity;BME280_pressure;Samples;Min_cycle;Max_cycle;Signal;HPM_P1;HPM_P2
2022/06/07 00:51:32;;;;;;;5.75;1.80;;;;;;;18.29;83.67;94241.28;6205440;23;20030;-89
2022/06/07 00:53:57;;;;;;;8.50;2.17;;;;;;;18.23;98.67;94243.34;6190481;23;20461;-91
2022/06/07 00:56:30;;;;;;;7.30;1.90;;;;;;;18.15;100.00;94244.16;6215784;23;20007;-91
2022/06/07 00:59:03;;;;;;;8.23;1.80;;;;;;;17.87;100.00;94245.31;6215836;23;20001;-91
2022/06/07 01:01:31;;;;;;;8.27;2.60;;;;;;;17.48;100.00;94232.00;6191868;23;20750;-92
2022/06/07 01:03:59;;;;;;;6.70;2.28;;;;;;;17.59;100.00;94237.72;6191062;23;20004;-91
2022/06/07 01:11:57;;;;;;;5.28;1.85;;;;;;;18.47;77.19;94215.47;6217397;23;20023;-91
2022/06/07 01:14:22;;;;;;;7.72;2.20;;;;;;;18.41;83.55;94208.78;6217522;23;20011;-90
2022/06/07 01:16:58;;;;;;;;;;;;;;;;;;;;;
2022/06/07 01:19:37;;;;;;;6.60;1.83;;;;;;;18.35;96.87;94200.22;6217123;23;20079;-91
2022/06/07 01:22:03;;;;;;;6.38;2.25;;;;;;;18.30;89.72;94208.38;6216880;23;20436;-90
2022/06/07 01:24:28;;;;;;;6.43;2.00;;;;;;;18.35;86.03;94198.34;6192143;23;20004;-91
2022/06/07 01:26:54;;;;;;;13.93;2.10;;;;;;;17.96;96.06;94194.91;6217212;23;20007;-90
2022/06/07 01:29:22;;;;;;;6.75;2.20;;;;;;;17.97;97.05;94193.81;6216942;23;20000;-90
2022/06/07 01:31:47;;;;;;;3.90;1.90;;;;;;;17.88;100.00;94193.84;6192616;23;20004;-90
2022/06/07 01:34:15;;;;;;;4.70;1.75;;;;;;;17.89;100.00;94199.94;6192008;23;20001;-91
2022/06/07 01:36:41;;;;;;;4.10;2.13;;;;;;;17.19;100.00;94185.78;6217041;23;20000;-91
2022/06/07 01:41:56;;;;;;;4.38;2.15;;;;;;;17.27;100.00;94189.50;6216645;23;20016;-90
2022/06/07 01:44:29;;;;;;;9.05;2.10;;;;;;;17.50;94.88;94187.44;6217079;23;20326;-91
2022/06/07 01:46:59;;;;;;;5.43;1.75;;;;;;;17.63;99.58;94180.38;6192547;23;20008;-91
2022/06/07 01:49:27;;;;;;;7.88;2.15;;;;;;;17.74;91.81;94183.47;6192464;23;20000;-91
2022/06/07 01:52:03;;;;;;;;;;;;;;;;;;;;;
2022/06/07 01:54:39;;;;;;;;;;;;;;;;;;;;;
2022/06/07 01:57:07;;;;;;;8.02;2.30;;;;;;;17.46;100.00;94165.31;6216910;23;20075;-91
2022/06/07 01:59:48;;;;;;;;;;;;;;;;;;;;;
2022/06/07 02:02:24;;;;;;;;;;;;;;;;;;;;;
2022/06/07 02:04:51;;;;;;;5.35;2.00;;;;;;;17.02;100.00;94161.97;6216762;23;20035;-91
2022/06/07 02:07:18;;;;;;;5.22;2.17;;;;;;;16.82;100.00;94151.69;6191782;23;20402;-91
2022/06/07 02:09:52;;;;;;;5.20;2.03;;;;;;;16.79;100.00;94151.53;6192127;23;20046;-90
2022/06/07 02:12:27;;;;;;;;;;;;;;;;;;;;;
2022/06/07 02:15:06;;;;;;;;;;;;;;;;;;;;;
2022/06/07 02:17:46;;;;;;;;;;;;;;;;;;;;;
2022/06/07 02:20:22;;;;;;;;;;;;;;;;;;;;;
2022/06/07 02:22:52;;;;;;;4.95;2.05;;;;;;;16.96;100.00;94143.56;6216184;23;20079;-90
2022/06/07 02:25:28;;;;;;;6.35;1.92;;;;;;;17.17;99.63;94137.66;6216553;23;20075;-91
2022/06/07 02:27:56;;;;;;;7.65;2.08;;;;;;;17.36;90.74;94131.22;6193519;23;20000;-92
2022/06/07 02:30:22;;;;;;;9.40;2.25;;;;;;;17.44;91.27;94129.66;6216362;23;20418;-90
2022/06/07 02:32:49;;;;;;;6.90;2.15;;;;;;;17.49;85.80;94119.66;6216698;23;19997;-91
2022/06/07 02:35:17;;;;;;;5.90;2.05;;;;;;;17.66;99.89;94116.19;6191969;23;20464;-91
2022/06/07 02:37:46;;;;;;;8.90;1.95;;;;;;;17.47;100.00;94118.41;6191959;23;20004;-93
2022/06/07 02:40:11;;;;;;;3.30;1.77;;;;;;;17.44;95.49;94117.19;6192390;23;20000;-91
2022/06/07 02:42:44;;;;;;;2.35;1.48;;;;;;;17.31;91.46;94121.59;6215875;23;20345;-91
2022/06/07 02:45:11;;;;;;;2.90;1.80;;;;;;;17.08;100.00;94113.88;6216497;23;20070;-91
2022/06/07 02:47:39;;;;;;;3.03;1.88;;;;;;;17.01;100.00;94102.97;6216495;23;20027;-92
2022/06/07 02:50:14;;;;;;;3.03;1.73;;;;;;;17.32;100.00;94107.25;6216287;23;20001;-91
2022/06/07 02:52:42;;;;;;;3.83;1.80;;;;;;;17.40;97.01;94105.66;6216208;23;20046;-91
2022/06/07 02:55:08;;;;;;;5.63;2.08;;;;;;;16.95;100.00;94112.13;6216429;23;19996;-90
2022/06/07 02:57:33;;;;;;;4.43;1.90;;;;;;;17.24;100.00;94113.34;6216489;23;20091;-92
2022/06/07 03:00:01;;;;;;;5.60;2.00;;;;;;;16.92;100.00;94112.75;6217850;23;20027;-91
2022/06/07 03:02:36;;;;;;;;;;;;;;;;;;;;;
2022/06/07 03:05:13;;;;;;;;;;;;;;;;;;;;;
2022/06/07 03:07:47;;;;;;;2.78;1.52;;;;;;;17.05;100.00;94103.13;6217446;23;20083;-92
2022/06/07 03:10:12;;;;;;;3.25;1.90;;;;;;;16.96;99.08;94100.47;6216216;23;20000;-92
2022/06/07 03:12:38;;;;;;;2.95;1.80;;;;;;;16.87;99.55;94116.34;6191544;23;20027;-92
2022/06/07 03:15:05;;;;;;;5.47;2.03;;;;;;;17.03;95.26;94108.72;6217852;23;20003;-92
2022/06/07 03:17:30;;;;;;;7.25;2.13;;;;;;;17.17;100.00;94115.69;6215817;23;20019;-91
2022/06/07 03:19:58;;;;;;;6.32;2.20;;;;;;;16.81;100.00;94112.31;6191402;23;19997;-90
2022/06/07 03:22:26;;;;;;;6.05;2.13;;;;;;;16.70;100.00;94117.13;6215616;23;20004;-90
2022/06/07 03:24:58;;;;;;;9.90;1.77;;;;;;;16.62;100.00;94112.63;6215843;23;19997;-91
2022/06/07 03:27:24;;;;;;;6.43;1.73;;;;;;;16.58;100.00;94109.03;6192834;23;20409;-91
2022/06/07 03:29:57;;;;;;;9.77;2.20;;;;;;;16.61;100.00;94113.69;6217530;23;20216;-90
2022/06/07 03:32:32;;;;;;;;;;;;;;;;;;;;;
2022/06/07 03:34:58;;;;;;;6.32;2.25;;;;;;;16.64;100.00;94105.13;6217205;23;20079;-91
2022/06/07 03:37:26;;;;;;;4.22;2.10;;;;;;;16.59;100.00;94102.66;6215746;23;20321;-90
2022/06/07 03:40:02;;;;;;;;;;;;;;;;;;;;;
2022/06/07 03:42:30;;;;;;;8.48;2.47;;;;;;;16.57;100.00;94107.50;6216521;23;20080;-91
2022/06/07 03:45:00;;;;;;;5.78;1.98;;;;;;;16.35;100.00;94109.97;6215755;23;20460;-90
2022/06/07 03:47:26;;;;;;;8.85;2.00;;;;;;;16.59;100.00;94100.03;6215777;23;19993;-90
2022/06/07 03:50:02;;;;;;;6.10;2.10;;;;;;;16.63;100.00;94104.38;6217145;23;20003;-91
2022/06/07 03:52:28;;;;;;;5.22;2.10;;;;;;;16.78;100.00;94100.47;6215181;23;20003;-91
2022/06/07 03:54:53;;;;;;;5.50;1.92;;;;;;;16.63;100.00;94104.38;6215894;23;19996;-90
2022/06/07 03:57:19;;;;;;;4.72;2.20;;;;;;;16.67;100.00;94105.31;6215719;23;20051;-91
2022/06/07 03:59:44;;;;;;;3.30;2.03;;;;;;;16.81;100.00;94105.16;6217144;23;20001;-90
2022/06/07 04:02:12;;;;;;;4.72;1.77;;;;;;;16.68;100.00;94111.38;6190270;23;20295;-90
2022/06/07 04:04:38;;;;;;;6.20;1.83;;;;;;;16.68;100.00;94103.44;6216244;23;20083;-90
2022/06/07 04:09:56;;;;;;;4.55;2.10;;;;;;;16.57;100.00;94094.25;6155768;23;20009;-90
2022/06/07 04:12:24;;;;;;;8.60;2.15;;;;;;;16.38;100.00;94085.53;6215226;23;20047;-91
2022/06/07 04:15:04;;;;;;;;;;;;;;;;;;;;;
2022/06/07 04:17:32;;;;;;;4.00;2.20;;;;;;;16.14;100.00;94093.13;6215749;23;20031;-90
2022/06/07 04:20:01;;;;;;;3.90;2.00;;;;;;;16.40;100.00;94093.19;6217303;23;20079;-91
2022/06/07 04:22:26;;;;;;;4.15;1.50;;;;;;;16.45;100.00;94095.66;6214772;23;20372;-90
2022/06/07 04:24:52;;;;;;;5.43;1.85;;;;;;;16.74;100.00;94091.59;6215416;23;20032;-89
2022/06/07 04:27:22;;;;;;;3.78;2.00;;;;;;;16.73;100.00;94087.41;6215758;23;20008;-89
2022/06/07 04:29:49;;;;;;;4.70;2.13;;;;;;;16.77;100.00;94101.56;6191466;23;20047;-90
2022/06/07 04:32:18;;;;;;;3.40;2.00;;;;;;;16.84;100.00;94097.69;6189546;23;20000;-90
2022/06/07 04:34:46;;;;;;;3.85;1.92;;;;;;;17.10;100.00;94100.28;6191037;23;20007;-91
2022/06/07 04:37:21;;;;;;;;;;;;;;;;;;;;;
2022/06/07 04:39:54;;;;;;;4.97;1.80;;;;;;;17.30;100.00;94108.69;6216639;23;20378;-90
2022/06/07 04:42:20;;;;;;;5.93;2.20;;;;;;;17.59;100.00;94110.59;6217511;23;20068;-91
2022/06/07 04:44:48;;;;;;;9.20;2.00;;;;;;;17.46;100.00;94107.06;6192628;23;20341;-90
2022/06/07 04:47:21;;;;;;;6.38;2.03;;;;;;;17.84;100.00;94102.84;6217452;23;20069;-91
2022/06/07 04:49:56;;;;;;;3.40;2.00;;;;;;;17.71;100.00;94114.44;6193991;23;19997;-92
2022/06/07 04:52:34;;;;;;;9.00;2.50;;;;;;;17.57;100.00;94112.00;6193477;23;20541;-86
2022/06/07 04:55:04;;;;;;;6.00;2.28;;;;;;;17.64;100.00;94118.34;6217217;23;20415;-86
2022/06/07 04:57:32;;;;;;;7.93;2.50;;;;;;;17.87;100.00;94126.06;6217307;23;20047;-86
2022/06/07 04:59:58;;;;;;;6.43;2.15;;;;;;;18.06;100.00;94127.53;6210947;23;20001;-86
2022/06/07 05:02:34;;;;;;;7.05;2.25;;;;;;;17.85;100.00;94127.47;6218252;23;20011;-85
2022/06/07 05:05:01;;;;;;;4.90;2.08;;;;;;;18.01;100.00;94131.16;6217337;23;19993;-85
2022/06/07 05:07:27;;;;;;;6.65;1.92;;;;;;;18.04;100.00;94132.38;6218646;23;20001;-86
2022/06/07 05:09:57;;;;;;;6.88;2.47;;;;;;;17.89;100.00;94150.34;6217010;23;20119;-86
2022/06/07 05:12:35;;;;;;;7.43;2.60;;;;;;;18.01;100.00;94149.69;6216501;23;20008;-86
2022/06/07 05:15:01;;;;;;;11.43;2.20;;;;;;;18.19;100.00;94152.28;6217338;23;20067;-87
2022/06/07 05:17:26;;;;;;;8.48;2.60;;;;;;;18.39;100.00;94148.09;6217696;23;19993;-86
2022/06/07 05:19:55;;;;;;;5.18;1.98;;;;;;;18.54;100.00;94152.06;6218839;23;20091;-86
2022/06/07 05:22:20;;;;;;;9.07;2.70;;;;;;;18.47;100.00;94159.75;6216721;23;20005;-85
2022/06/07 05:24:46;;;;;;;5.68;2.67;;;;;;;18.72;100.00;94151.91;6218664;23;20003;-86
2022/06/07 05:27:18;;;;;;;12.27;2.83;;;;;;;18.97;100.00;94158.13;6216945;23;20072;-86
2022/06/07 05:29:47;;;;;;;11.82;2.38;;;;;;;18.97;100.00;94160.78;6216899;23;20050;-84
2022/06/07 05:32:13;;;;;;;8.45;3.63;;;;;;;19.02;100.00;94162.50;6216380;23;19999;-85
2022/06/07 05:34:42;;;;;;;10.48;2.70;;;;;;;18.80;100.00;94169.66;6216893;23;19997;-85
2022/06/07 05:37:14;;;;;;;8.35;2.45;;;;;;;18.99;100.00;94174.53;6216940;23;20417;-86
2022/06/07 05:39:40;;;;;;;10.03;2.83;;;;;;;19.00;100.00;94178.75;6216738;23;20008;-86
2022/06/07 05:42:06;;;;;;;10.38;2.72;;;;;;;19.55;100.00;94181.38;6216160;23;20377;-87
2022/06/07 05:44:32;;;;;;;8.15;3.15;;;;;;;19.89;100.00;94178.66;6217453;23;20075;-87
2022/06/07 05:47:41;;;;;;;;;;;;;;;;;;;;;
2022/06/07 05:50:09;;;;;;;9.85;3.38;;;;;;;20.07;100.00;94189.88;6212826;23;20024;-87
2022/06/07 05:52:36;;;;;;;10.98;3.97;;;;;;;19.78;100.00;94187.06;6218183;23;19996;-86
2022/06/07 05:55:04;;;;;;;12.40;4.65;;;;;;;19.81;100.00;94195.47;6218072;23;19992;-86
2022/06/07 05:57:30;;;;;;;5.43;2.00;;;;;;;19.89;100.00;94191.94;6218157;23;19997;-86
2022/06/07 05:59:55;;;;;;;7.68;2.50;;;;;;;19.92;100.00;94188.66;6216640;23;19997;-86
2022/06/07 06:02:21;;;;;;;9.20;3.03;;;;;;;19.88;100.00;94204.44;6215880;23;20321;-87
2022/06/07 06:04:48;;;;;;;10.02;3.65;;;;;;;20.16;100.00;94200.44;6216522;23;20417;-86
2022/06/07 06:07:14;;;;;;;12.98;3.38;;;;;;;20.00;100.00;94201.06;6216652;23;20080;-86
2022/06/07 06:12:23;;;;;;;12.02;2.17;;;;;;;19.96;100.00;94200.16;6217515;23;20011;-86
2022/06/07 06:14:48;;;;;;;6.63;1.90;;;;;;;19.88;100.00;94209.78;6216565;23;20324;-86
2022/06/07 06:17:14;;;;;;;8.27;2.50;;;;;;;20.15;100.00;94209.47;6216401;23;20433;-87
2022/06/07 06:19:39;;;;;;;6.60;2.58;;;;;;;19.94;100.00;94212.22;6216899;23;19997;-87
2022/06/07 06:22:05;;;;;;;10.85;2.78;;;;;;;20.23;100.00;94205.94;6217817;23;20507;-86
2022/06/07 06:24:30;;;;;;;13.00;3.28;;;;;;;20.33;100.00;94210.03;6217961;23;20291;-86
2022/06/07 06:26:56;;;;;;;10.23;4.15;;;;;;;20.41;100.00;94211.03;6217904;23;20059;-86
2022/06/07 06:29:23;;;;;;;13.05;4.45;;;;;;;20.29;100.00;94212.59;6216600;23;20027;-87
2022/06/07 06:31:50;;;;;;;15.82;4.47;;;;;;;20.17;100.00;94224.00;6214451;23;20003;-88
2022/06/07 06:34:19;;;;;;;14.23;4.80;;;;;;;20.19;100.00;94213.81;6216743;23;20397;-88
2022/06/07 06:36:50;;;;;;;9.35;4.53;;;;;;;20.36;100.00;94208.63;6216909;23;20071;-86
2022/06/07 06:39:26;;;;;;;14.90;6.05;;;;;;;20.16;100.00;94203.09;6218507;23;19997;-92
2022/06/07 06:41:52;;;;;;;22.00;11.20;;;;;;;20.23;100.00;94211.28;6191406;23;20043;-86
2022/06/07 06:44:18;;;;;;;24.95;9.73;;;;;;;19.98;100.00;94210.50;6215380;23;20004;-88
2022/06/07 06:46:48;;;;;;;24.52;10.43;;;;;;;20.04;100.00;94212.59;6217884;23;20035;-88
2022/06/07 06:49:24;;;;;;;26.52;12.38;;;;;;;19.94;100.00;94197.06;6217074;23;20000;-87
2022/06/07 06:51:52;;;;;;;31.95;12.10;;;;;;;20.00;100.00;94210.94;6216115;23;20004;-86
2022/06/07 06:54:18;;;;;;;29.83;12.25;;;;;;;20.43;100.00;94214.94;6216061;23;20079;-87
2022/06/07 06:56:43;;;;;;;29.98;12.43;;;;;;;20.28;100.00;94210.28;6216358;23;20055;-90
2022/06/07 06:59:09;;;;;;;30.90;15.13;;;;;;;19.80;100.00;94210.66;6216438;23;20000;-89
2022/06/07 07:01:38;;;;;;;31.25;15.23;;;;;;;19.96;100.00;94202.06;6216024;23;20079;-87
2022/06/07 07:04:06;;;;;;;31.00;15.18;;;;;;;19.78;100.00;94204.88;6217204;23;20056;-86
2022/06/07 07:06:31;;;;;;;35.55;14.98;;;;;;;20.00;100.00;94226.88;6217850;23;19993;-88
2022/06/07 07:08:58;;;;;;;28.23;15.65;;;;;;;20.12;100.00;94204.84;6191368;23;20004;-87
2022/06/07 07:11:32;;;;;;;29.50;16.33;;;;;;;20.25;100.00;94214.38;6216364;23;20378;-88
2022/06/07 07:13:58;;;;;;;31.15;16.48;;;;;;;20.22;100.00;94204.41;6215948;23;20035;-88
2022/06/07 07:16:26;;;;;;;33.58;17.73;;;;;;;20.18;100.00;94201.63;6217765;23;20016;-89
2022/06/07 07:18:52;;;;;;;31.52;17.00;;;;;;;20.46;100.00;94200.19;6217439;23;20007;-87
2022/06/07 07:21:35;;;;;;;30.20;17.00;;;;;;;20.94;100.00;94208.41;6216477;23;19997;-87
2022/06/07 07:24:03;;;;;;;26.33;15.43;;;;;;;21.46;100.00;94222.81;6217248;23;20001;-86
2022/06/07 07:26:37;;;;;;;33.22;17.50;;;;;;;21.24;100.00;94221.44;6190723;23;20004;-88
2022/06/07 07:29:04;;;;;;;33.00;16.77;;;;;;;21.26;100.00;94216.56;6216042;23;20034;-86
2022/06/07 07:31:32;;;;;;;32.13;17.67;;;;;;;21.10;100.00;94221.06;6215773;23;19992;-86
2022/06/07 07:34:10;;;;;;;29.98;17.08;;;;;;;21.47;100.00;94234.22;6215535;23;19993;-90
2022/06/07 07:36:40;;;;;;;29.20;17.17;;;;;;;21.39;100.00;94222.59;6216367;23;20000;-91
2022/06/07 07:39:15;;;;;;;;;;;;;;;;;;;;;
2022/06/07 07:41:53;;;;;;;;;;;;;;;;;;;;;
2022/06/07 07:44:28;;;;;;;33.17;17.92;;;;;;;20.82;100.00;94213.81;6215867;23;20071;-90
2022/06/07 07:46:55;;;;;;;36.90;18.75;;;;;;;20.49;100.00;94218.13;6215803;23;20000;-88
2022/06/07 07:49:24;;;;;;;37.00;19.25;;;;;;;20.54;100.00;94217.91;6215174;23;20079;-90
2022/06/07 07:51:52;;;;;;;30.65;17.77;;;;;;;20.55;100.00;94216.78;6191026;23;20425;-90
2022/06/07 07:54:21;;;;;;;39.10;20.48;;;;;;;20.33;100.00;94216.16;6216372;23;19993;-89
2022/06/07 07:56:47;;;;;;;33.20;19.17;;;;;;;20.79;100.00;94201.13;6216685;23;20007;-90
2022/06/07 07:59:15;;;;;;;40.20;19.25;;;;;;;20.83;100.00;94197.47;6215944;23;20024;-90
2022/06/07 08:01:41;;;;;;;27.58;17.63;;;;;;;20.71;100.00;94208.91;6215489;23;20407;-89
2022/06/07 08:04:09;;;;;;;34.13;17.92;;;;;;;21.00;100.00;94200.97;6217556;23;20023;-89
2022/06/07 08:06:35;;;;;;;36.58;17.92;;;;;;;21.51;100.00;94205.78;6190721;23;20330;-89
2022/06/07 08:09:03;;;;;;;29.58;16.17;;;;;;;21.90;100.00;94207.94;6215950;23;19992;-89
2022/06/07 08:11:34;;;;;;;31.08;16.52;;;;;;;22.06;100.00;94207.91;6215936;23;20349;-89
2022/06/07 08:13:59;;;;;;;27.88;17.63;;;;;;;21.90;100.00;94210.59;6216520;23;19992;-89
2022/06/07 08:16:25;;;;;;;27.83;17.90;;;;;;;21.92;100.00;94207.56;6218240;23;20066;-89
2022/06/07 08:18:51;;;;;;;28.50;17.13;;;;;;;22.08;100.00;94211.00;6193383;23;19992;-89
2022/06/07 08:21:20;;;;;;;31.33;18.73;;;;;;;21.98;100.00;94208.88;6217905;23;20352;-89
2022/06/07 08:23:47;;;;;;;26.20;17.00;;;;;;;21.97;100.00;94215.34;6217982;23;20002;-89
2022/06/07 08:26:12;;;;;;;24.55;17.05;;;;;;;22.22;100.00;94212.47;6193167;23;20054;-88
2022/06/07 08:28:37;;;;;;;30.05;17.33;;;;;;;22.04;100.00;94212.84;6219362;23;20000;-88
2022/06/07 08:31:04;;;;;;;32.13;17.58;;;;;;;21.96;100.00;94205.78;6217887;23;20279;-89
2022/06/07 08:39:01;;;;;;;26.48;15.52;;;;;;;22.77;100.00;94211.81;6219289;23;20015;-88
2022/06/07 08:41:40;;;;;;;31.48;17.48;;;;;;;22.72;100.00;94208.31;6217656;23;20361;-89
2022/06/07 08:44:09;;;;;;;24.90;15.30;;;;;;;23.18;100.00;94206.16;6192953;23;20007;-88
2022/06/07 08:46:38;;;;;;;27.92;15.95;;;;;;;22.48;100.00;94198.63;6192420;23;20313;-89
2022/06/07 08:49:05;;;;;;;26.95;15.93;;;;;;;23.32;100.00;94189.66;6217679;23;20023;-88
2022/06/07 08:51:43;;;;;;;23.52;13.68;;;;;;;23.71;100.00;94181.56;6217549;23;19996;-88
2022/06/07 08:54:20;;;;;;;22.10;13.90;;;;;;;23.78;100.00;94188.94;6217990;23;20046;-88
2022/06/07 08:56:47;;;;;;;25.17;14.73;;;;;;;24.20;100.00;94182.00;6217336;23;20080;-88
2022/06/07 08:59:17;;;;;;;25.73;15.05;;;;;;;24.32;100.00;94183.69;6217947;23;20365;-88
2022/06/07 09:02:01;;;;;;;25.63;15.88;;;;;;;23.70;100.00;94178.13;6217470;23;20095;-88
2022/06/07 09:04:29;;;;;;;23.27;14.50;;;;;;;24.13;100.00;94175.41;6217408;23;20465;-89
2022/06/07 09:07:12;;;;;;;24.75;12.57;;;;;;;23.81;100.00;94174.84;6217193;23;20003;-89
2022/06/07 09:12:29;;;;;;;23.27;13.85;;;;;;;25.20;100.00;94170.31;6217691;23;20305;-89
2022/06/07 09:15:03;;;;;;;;;;;;;;;23.64;100.00;94170.75;6217951;23;20004;-89
2022/06/07 09:17:40;;;;;;;27.73;15.23;;;;;;;24.20;100.00;94168.59;6193319;23;19904;-90
2022/06/07 09:20:14;;;;;;;31.00;16.95;;;;;;;24.81;100.00;94161.44;6192219;23;20356;-90
2022/06/07 09:22:49;;;;;;;23.63;15.00;;;;;;;25.10;100.00;94150.28;6217068;23;20005;-88
2022/06/07 09:25:29;;;;;;;33.58;13.88;;;;;;;25.44;100.00;94158.31;6192805;23;20000;-89
2022/06/07 09:27:57;;;;;;;27.33;16.33;;;;;;;25.23;100.00;94153.50;6192601;23;20047;-90
2022/06/07 09:30:34;;;;;;;28.00;13.27;;;;;;;25.83;100.00;94157.94;6216910;23;20027;-89
2022/06/07 09:33:10;;;;;;;22.33;13.20;;;;;;;26.28;100.00;94149.09;6192674;23;20019;-89
2022/06/07 09:35:41;;;;;;;21.48;13.52;;;;;;;24.57;100.00;94149.25;6193234;23;20075;-88
2022/06/07 09:38:22;;;;;;;28.10;14.60;;;;;;;23.73;100.00;94150.66;6193013;23;19997;-89
2022/06/07 09:40:57;;;;;;;23.83;13.35;;;;;;;24.81;100.00;94144.59;6192790;23;20000;-88
2022/06/07 09:43:26;;;;;;;34.40;16.02;;;;;;;24.49;100.00;94131.53;6192217;23;20078;-89
2022/06/07 09:46:04;;;;;;;30.60;16.05;;;;;;;25.13;100.00;94134.25;6192387;23;20004;-91
2022/06/07 09:48:36;;;;;;;22.83;14.15;;;;;;;26.22;100.00;94134.47;6217275;23;20046;-89
2022/06/07 09:51:21;;;;;;;21.95;11.93;;;;;;;27.15;100.00;94138.78;6216804;23;20009;-89
2022/06/07 09:53:59;;;;;;;24.52;12.90;;;;;;;27.78;100.00;94138.53;6216730;23;20366;-90
2022/06/07 09:56:38;;;;;;;26.90;13.85;;;;;;;27.41;100.00;94133.47;6216959;23;20425;-89
2022/06/07 09:59:12;;;;;;;24.13;13.73;;;;;;;28.26;88.43;94130.47;6217064;23;20048;-88
2022/06/07 10:01:55;;;;;;;25.15;14.48;;;;;;;26.05;100.00;94123.22;6217276;23;20083;-89
2022/06/07 10:04:50;;;;;;;22.40;12.37;;;;;;;25.62;100.00;94130.91;6191871;23;20007;-88
2022/06/07 10:07:38;;;;;;;27.63;12.07;;;;;;;24.83;100.00;94129.69;6215950;23;20035;-89
2022/06/07 10:10:21;;;;;;;24.85;14.40;;;;;;;24.43;100.00;94131.06;6205834;23;20016;-89
2022/06/07 10:12:55;;;;;;;25.30;13.88;;;;;;;25.66;100.00;94121.75;6216811;23;19999;-88
2022/06/07 10:15:24;;;;;;;17.98;10.70;;;;;;;26.48;100.00;94124.66;6216777;23;20083;-89
2022/06/07 10:18:07;;;;;;;21.08;11.60;;;;;;;24.47;100.00;94125.78;6217124;23;20051;-89
2022/06/07 10:20:38;;;;;;;25.38;14.40;;;;;;;23.99;100.00;94113.63;6216944;23;20063;-89
2022/06/07 10:23:15;;;;;;;19.05;12.48;;;;;;;25.31;100.00;94112.22;6217710;23;20028;-89
2022/06/07 10:26:12;;;;;;;21.70;14.63;;;;;;;25.94;100.00;94119.66;6216630;23;20046;-89
2022/06/07 10:29:11;;;;;;;27.67;14.88;;;;;;;24.85;100.00;94115.94;6216785;23;20007;-88
2022/06/07 10:31:42;;;;;;;21.48;11.77;;;;;;;25.96;100.00;94107.44;6181676;23;20031;-89
2022/06/07 10:34:12;;;;;;;24.33;14.32;;;;;;;25.72;100.00;94102.63;6191710;23;20012;-89
2022/06/07 10:36:40;;;;;;;25.00;12.90;;;;;;;25.87;100.00;94098.16;6216060;23;19996;-89
2022/06/07 10:39:20;;;;;;;20.13;9.80;;;;;;;26.42;100.00;94094.69;6217932;23;20008;-89
2022/06/07 10:42:11;;;;;;;22.45;13.55;;;;;;;26.56;100.00;94090.53;6217932;23;20001;-88
2022/06/07 10:44:44;;;;;;;19.15;10.27;;;;;;;27.15;100.00;94089.59;6218062;23;20008;-89
2022/06/07 10:47:19;;;;;;;24.77;11.73;;;;;;;27.12;100.00;94095.75;6216971;23;19993;-89
2022/06/07 10:49:50;;;;;;;20.92;11.80;;;;;;;26.60;100.00;94094.78;6216559;23;19997;-88
2022/06/07 10:52:29;;;;;;;27.95;11.60;;;;;;;26.68;100.00;94091.00;6218018;23;20004;-88
2022/06/07 10:55:19;;;;;;;14.90;9.75;;;;;;;27.22;100.00;94086.94;6216397;23;20005;-89
2022/06/07 10:58:04;;;;;;;18.77;8.73;;;;;;;27.18;99.69;94078.88;6191791;23;20000;-89
2022/06/07 11:00:35;;;;;;;16.50;7.22;;;;;;;28.00;100.00;94089.31;6216467;23;20000;-88
2022/06/07 11:03:11;;;;;;;18.63;6.40;;;;;;;28.14;97.86;94093.91;6216565;23;20401;-88
2022/06/07 11:11:20;;;;;;;15.07;6.25;;;;;;;26.30;99.46;94077.00;6217465;23;20019;-89
2022/06/07 11:14:02;;;;;;;13.13;6.53;;;;;;;26.81;98.52;94074.50;6216079;23;20063;-91
2022/06/07 11:16:43;;;;;;;21.83;7.77;;;;;;;26.41;100.00;94073.59;6216397;23;20314;-90
2022/06/07 11:19:09;;;;;;;19.80;6.82;;;;;;;27.14;100.00;94064.66;6217746;23;19996;-91
2022/06/07 11:21:41;;;;;;;20.00;6.90;;;;;;;26.46;99.41;94067.84;6191219;23;20138;-91
2022/06/07 11:25:01;;;;;;;;;;;;;;;;;;;;;
2022/06/07 11:27:30;;;;;;;17.40;8.10;;;;;;;25.51;100.00;94050.38;6106077;23;20085;-91
2022/06/07 11:30:20;;;;;;;17.63;8.88;;;;;;;26.06;100.00;94046.91;6191500;23;19997;-92
2022/06/07 11:33:03;;;;;;;;;;;;;;;;;;;;;
2022/06/07 11:35:52;;;;;;;;;;;;;;;26.03;100.00;94038.81;6216851;23;20016;-91
2022/06/07 11:38:19;;;;;;;18.77;10.25;;;;;;;24.77;100.00;94042.00;6216356;23;19904;-91
2022/06/07 11:40:54;;;;;;;24.08;12.52;;;;;;;23.91;100.00;94026.34;6215522;23;20001;-90
2022/06/07 11:44:00;;;;;;;;;;;;;;;;;;;;;
2022/06/07 11:46:28;;;;;;;;;;;;;;;22.86;100.00;94020.09;6217611;23;20032;-91
2022/06/07 11:49:03;;;;;;;;;;;;;;;;;;;;;
2022/06/07 11:51:33;;;;;;;28.00;16.13;;;;;;;22.48;100.00;94021.69;6217253;23;20063;-91
2022/06/07 11:54:06;;;;;;;22.60;13.75;;;;;;;22.72;100.00;94008.03;6215572;23;20001;-91
2022/06/07 11:56:47;;;;;;;25.63;14.52;;;;;;;23.19;100.00;94005.38;6215647;23;20452;-91
2022/06/07 11:59:29;;;;;;;;;;;;;;;;;;;;;
2022/06/07 12:01:54;;;;;;;29.08;14.15;;;;;;;23.35;100.00;93993.81;6216465;23;20091;-91
2022/06/07 12:04:54;;;;;;;25.70;12.98;;;;;;;23.62;100.00;93999.97;6215489;23;20421;-87
2022/06/07 12:07:23;;;;;;;24.42;11.07;;;;;;;24.20;100.00;94008.81;6215828;23;20001;-86
2022/06/07 12:09:55;;;;;;;23.88;12.98;;;;;;;23.41;100.00;94011.88;6217011;23;20020;-86
2022/06/07 12:12:31;;;;;;;28.27;14.23;;;;;;;23.93;100.00;93990.09;6217122;23;19996;-86
2022/06/07 12:15:24;;;;;;;37.75;15.30;;;;;;;23.54;100.00;93988.41;6216983;23;19997;-86
2022/06/07 13:23:35;;;;;;;71.90;37.53;;;;;;;18.54;100.00;94021.31;5096377;28;20412;-84
2022/06/07 13:26:20;;;;;;;69.20;38.03;;;;;;;18.19;100.00;94044.34;5075914;28;20471;-85
2022/06/07 13:28:48;;;;;;;51.63;28.73;;;;;;;18.02;100.00;94055.84;5088915;28;20040;-85
2022/06/07 13:31:27;;;;;;;48.05;26.92;;;;;;;18.10;100.00;94067.50;5056004;28;20109;-84
2022/06/07 13:34:05;;;;;;;60.42;32.97;;;;;;;17.98;100.00;94067.38;5072183;28;20029;-87
2022/06/07 13:36:36;;;;;;;782.28;68.25;;;;;;;18.18;100.00;94079.91;5056310;28;20032;-91
2022/06/07 13:39:03;;;;;;;56.80;30.63;;;;;;;18.05;100.00;94073.75;5055938;28;20464;-94
2022/06/07 13:41:30;;;;;;;48.45;25.73;;;;;;;17.80;100.00;94044.41;5072475;28;20099;-92
2022/06/07 13:44:22;;;;;;;60.10;32.00;;;;;;;18.09;100.00;94047.41;5072033;28;20421;-90
2022/06/07 13:47:02;;;;;;;60.63;31.95;;;;;;;18.24;100.00;94072.53;5052111;28;20492;-91
2022/06/07 13:55:45;;;;;;;15.02;8.32;;;;;;;16.19;100.00;94101.69;5072188;28;20473;-90
2022/06/07 13:58:11;;;;;;;21.77;6.57;;;;;;;15.23;100.00;94102.16;5072126;28;20025;-89
2022/06/07 14:00:36;;;;;;;24.77;6.93;;;;;;;15.43;100.00;94107.97;5072198;28;20028;-91
2022/06/07 14:03:04;;;;;;;9.30;4.25;;;;;;;14.75;100.00;94093.78;5071461;28;20425;-92
2022/06/07 14:05:31;;;;;;;13.27;4.90;;;;;;;14.67;100.00;94110.31;5071737;28;20117;-90
2022/06/07 14:07:58;;;;;;;27.00;5.43;;;;;;;14.72;100.00;94139.22;5071882;28;20024;-93
2022/06/07 14:10:26;;;;;;;14.88;4.32;;;;;;;14.78;100.00;94143.31;5055438;28;20020;-92
2022/06/07 14:12:51;;;;;;;10.88;3.47;;;;;;;14.44;100.00;94143.78;5055368;28;20025;-92
2022/06/07 14:15:17;;;;;;;8.27;3.40;;;;;;;14.47;100.00;94175.56;5055768;28;20035;-90
2022/06/07 14:17:45;;;;;;;16.20;4.85;;;;;;;14.74;100.00;94207.50;5055356;28;20028;-92
2022/06/07 14:20:15;;;;;;;762.58;41.97;;;;;;;14.49;100.00;94236.72;5055222;28;20067;-89
2022/06/07 14:22:41;;;;;;;9.95;4.60;;;;;;;14.76;100.00;94235.09;5067909;28;20429;-90
2022/06/07 14:25:10;;;;;;;9.85;4.32;;;;;;;14.88;100.00;94239.09;5059398;28;20108;-91
2022/06/07 14:27:35;;;;;;;12.73;3.53;;;;;;;14.81;100.00;94227.09;5058238;28;20028;-92
2022/06/07 14:30:01;;;;;;;13.85;4.85;;;;;;;15.00;100.00;94233.31;5058382;28;20029;-91
2022/06/07 14:32:31;;;;;;;10.15;4.57;;;;;;;14.93;100.00;94212.63;5055779;28;20028;-91
2022/06/07 14:34:57;;;;;;;14.18;5.50;;;;;;;15.38;100.00;94228.47;5058050;28;20036;-92
2022/06/07 14:37:23;;;;;;;12.65;5.32;;;;;;;15.43;100.00;94210.94;5041594;28;20349;-90
2022/06/07 14:39:49;;;;;;;8.68;5.10;;;;;;;15.15;100.00;94184.69;5057973;28;20032;-90